Time;durP1;ratioP1;P1;durP2;ratioP2;P2;SDS_P1;SDS_P2;PMS_P1;PMS_P2;Temp;Humidity;BMP_temperature;BMP_pressure;BME280_temperature;BME280_humidity;BME280_pressure;Samples;Min_cycle;Max_cycle;Signal;HPM_P1;HPM_P2
2022/11/30 00:00:55;;;;;;;80.25;16.30;;;12.00;97.40;;;;;;5090778;28;20027;-55
2022/11/30 00:03:21;;;;;;;83.35;16.25;;;12.00;97.40;;;;;;5090799;28;20020;-55
2022/11/30 00:05:46;;;;;;;94.75;18.33;;;12.00;97.40;;;;;;5090652;28;20057;-55
2022/11/30 00:08:12;;;;;;;107.47;17.92;;;12.00;97.40;;;;;;5107798;28;20080;-55
2022/11/30 00:10:38;;;;;;;81.97;18.15;;;12.00;97.40;;;;;;5073867;28;20027;-55
2022/11/30 00:13:04;;;;;;;92.10;16.60;;;11.90;97.50;;;;;;5126043;28;20031;-55
2022/11/30 00:15:29;;;;;;;82.03;16.00;;;11.90;97.50;;;;;;5126065;28;20034;-55
2022/11/30 00:17:55;;;;;;;78.40;16.70;;;11.90;97.40;;;;;;5107571;28;20028;-55
2022/11/30 00:20:21;;;;;;;78.18;16.25;;;11.90;97.40;;;;;;5107723;28;20106;-55
2022/11/30 00:22:46;;;;;;;86.75;15.80;;;11.90;97.40;;;;;;5107570;28;20030;-59
2022/11/30 00:25:12;;;;;;;99.78;17.63;;;11.90;97.40;;;;;;5107577;28;20019;-59
2022/11/30 00:27:37;;;;;;;88.75;16.17;;;11.90;97.50;;;;;;5090700;28;20038;-58
2022/11/30 00:30:04;;;;;;;88.00;17.48;;;11.90;97.50;;;;;;5107471;28;20548;-58
2022/11/30 00:32:29;;;;;;;72.13;16.20;;;11.80;97.50;;;;;;5107438;28;20031;-58
2022/11/30 00:34:55;;;;;;;80.80;16.13;;;11.80;97.50;;;;;;5125693;28;20049;-59
2022/11/30 00:37:21;;;;;;;88.78;16.67;;;11.80;97.50;;;;;;5107286;28;20399;-58
2022/11/30 00:39:46;;;;;;;81.18;16.02;;;11.80;97.50;;;;;;5107414;28;20092;-58
2022/11/30 00:42:12;;;;;;;62.42;14.13;;;11.80;97.40;;;;;;5090189;28;20429;-59
2022/11/30 00:44:37;;;;;;;70.15;14.40;;;11.80;97.40;;;;;;5108510;28;20400;-56
2022/11/30 00:47:03;;;;;;;92.35;16.23;;;11.80;97.40;;;;;;5107445;28;20031;-59
2022/11/30 00:49:28;;;;;;;79.50;15.75;;;11.80;97.40;;;;;;5126099;28;20034;-58
2022/11/30 00:51:54;;;;;;;66.70;15.02;;;11.70;97.40;;;;;;5125171;28;20058;-59
2022/11/30 00:54:20;;;;;;;59.63;14.65;;;11.70;97.40;;;;;;5107136;28;20061;-58
2022/11/30 00:56:45;;;;;;;54.03;13.68;;;11.70;97.20;;;;;;5090358;28;20032;-58
2022/11/30 00:59:11;;;;;;;65.35;14.75;;;11.80;97.10;;;;;;5107383;28;20035;-58
2022/11/30 01:01:36;;;;;;;61.58;13.38;;;11.80;97.00;;;;;;5107390;28;20035;-59
2022/11/30 01:04:02;;;;;;;56.35;12.93;;;11.70;96.90;;;;;;5106997;28;20034;-58
2022/11/30 01:06:27;;;;;;;55.50;12.93;;;11.80;96.90;;;;;;5090277;28;20055;-59
2022/11/30 01:08:53;;;;;;;41.80;11.77;;;11.70;96.80;;;;;;5107090;28;20051;-58
2022/11/30 01:11:23;;;;;;;50.72;12.07;;;11.70;96.70;;;;;;5106774;28;20028;-59
2022/11/30 01:13:50;;;;;;;54.22;12.70;;;11.70;96.70;;;;;;5107181;28;20167;-58
2022/11/30 01:16:17;;;;;;;46.85;12.27;;;11.70;96.70;;;;;;5089976;28;20028;-59
2022/11/30 01:18:43;;;;;;;47.55;12.38;;;11.70;96.70;;;;;;5107091;28;20053;-59
2022/11/30 01:21:09;;;;;;;52.35;12.07;;;11.70;96.80;;;;;;5124970;28;20027;-59
2022/11/30 01:23:35;;;;;;;37.67;10.88;;;11.70;96.90;;;;;;5106841;28;20049;-59
2022/11/30 01:26:00;;;;;;;46.67;11.63;;;11.60;96.80;;;;;;5089896;28;20087;-59
2022/11/30 01:28:26;;;;;;;46.17;11.10;;;11.60;96.70;;;;;;5106884;28;20028;-59
2022/11/30 01:30:59;;;;;;;45.28;11.00;;;11.60;96.70;;;;;;5106755;28;20124;-59
2022/11/30 01:33:25;;;;;;;40.75;11.13;;;11.60;96.70;;;;;;5106795;28;20032;-58
2022/11/30 01:36:10;;;;;;;47.95;10.45;;;11.60;96.70;;;;;;5089829;28;20074;-58
2022/11/30 01:38:38;;;;;;;37.80;10.45;;;11.60;96.70;;;;;;5107806;28;20099;-58
2022/11/30 01:41:04;;;;;;;37.42;10.63;;;11.60;96.70;;;;;;5106787;28;20093;-58
2022/11/30 01:43:47;;;;;;;47.53;10.10;;;11.60;96.70;;;;;;5106514;28;20024;-58
2022/11/30 01:46:26;;;;;;;39.60;9.82;;;11.50;96.60;;;;;;5107859;28;20036;-58
2022/11/30 01:49:17;;;;;;;41.00;11.05;;;11.60;96.60;;;;;;5106620;28;20102;-58
2022/11/30 01:51:47;;;;;;;44.58;11.30;;;11.50;96.50;;;;;;5094766;28;20469;-59
2022/11/30 01:54:15;;;;;;;31.50;9.93;;;11.50;96.50;;;;;;5106728;28;20053;-59
2022/11/30 01:56:46;;;;;;;40.40;10.18;;;11.50;96.50;;;;;;5089703;28;20046;-58
2022/11/30 01:59:11;;;;;;;38.60;10.38;;;11.50;96.50;;;;;;5089717;28;20028;-58
2022/11/30 02:01:37;;;;;;;35.00;10.13;;;11.50;96.50;;;;;;5106468;28;20044;-58
2022/11/30 02:04:06;;;;;;;35.63;10.02;;;11.50;96.60;;;;;;5107634;28;20019;-59
2022/11/30 02:06:32;;;;;;;38.58;8.90;;;11.50;96.60;;;;;;5093394;28;20087;-57
2022/11/30 02:08:58;;;;;;;24.27;8.90;;;11.50;96.60;;;;;;5076348;28;20050;-58
2022/11/30 02:11:23;;;;;;;37.22;9.35;;;11.50;96.50;;;;;;5092887;28;20053;-58
2022/11/30 02:13:53;;;;;;;29.50;9.75;;;11.40;96.50;;;;;;5093039;28;20023;-59
2022/11/30 02:16:37;;;;;;;40.47;9.10;;;11.40;96.60;;;;;;5109786;28;20078;-58
2022/11/30 02:19:06;;;;;;;20.67;8.23;;;11.40;96.70;;;;;;5128159;28;20028;-58
2022/11/30 02:21:50;;;;;;;26.45;8.80;;;11.40;96.60;;;;;;5127841;28;20032;-58
2022/11/30 02:24:25;;;;;;;29.40;9.32;;;11.40;96.50;;;;;;5109899;28;20307;-58
2022/11/30 02:27:08;;;;;;;31.67;10.03;;;11.40;96.40;;;;;;5110067;28;20027;-58
2022/11/30 02:29:42;;;;;;;24.77;9.50;;;11.40;96.40;;;;;;5109782;28;20038;-58
2022/11/30 02:32:29;;;;;;;24.23;8.30;;;11.40;96.40;;;;;;5093641;28;20038;-58
2022/11/30 02:34:55;;;;;;;29.83;9.60;;;11.40;96.30;;;;;;5109292;28;20024;-59
2022/11/30 02:37:20;;;;;;;37.50;9.65;;;11.40;96.40;;;;;;5092481;28;20119;-58
2022/11/30 02:39:46;;;;;;;25.25;10.18;;;11.40;96.40;;;;;;5092576;28;20020;-58
2022/11/30 02:42:12;;;;;;;30.33;10.80;;;11.40;96.50;;;;;;5127617;28;20533;-58
2022/11/30 02:44:39;;;;;;;23.75;10.10;;;11.40;96.50;;;;;;5127698;28;20016;-58
2022/11/30 02:47:30;;;;;;;23.98;9.88;;;11.30;96.40;;;;;;5109382;28;20492;-58
2022/11/30 02:50:02;;;;;;;22.77;9.50;;;11.30;96.50;;;;;;5094141;28;20461;-58
2022/11/30 02:52:28;;;;;;;27.98;9.73;;;11.30;96.50;;;;;;5076071;28;20408;-59
2022/11/30 02:55:05;;;;;;;19.48;9.43;;;11.30;96.50;;;;;;5092190;28;20095;-58
2022/11/30 02:57:31;;;;;;;20.65;10.18;;;11.30;96.50;;;;;;5108838;28;20467;-58
2022/11/30 02:59:56;;;;;;;24.17;9.75;;;11.30;96.40;;;;;;5075278;28;20020;-58
2022/11/30 03:02:22;;;;;;;24.30;9.20;;;11.30;96.30;;;;;;5092019;28;20465;-58
2022/11/30 03:04:47;;;;;;;28.38;9.77;;;11.30;96.50;;;;;;5108957;28;20016;-59
2022/11/30 03:07:13;;;;;;;21.75;9.82;;;11.30;96.70;;;;;;5127382;28;20409;-58
2022/11/30 03:09:38;;;;;;;21.95;9.50;;;11.30;96.70;;;;;;5092088;28;20461;-58
2022/11/30 03:12:04;;;;;;;25.80;9.45;;;11.30;96.80;;;;;;5108511;28;20051;-58
2022/11/30 03:14:30;;;;;;;21.52;9.02;;;11.30;96.80;;;;;;5126741;28;20106;-58
2022/11/30 03:16:56;;;;;;;21.77;8.70;;;11.30;96.90;;;;;;5126964;28;20039;-58
2022/11/30 03:19:21;;;;;;;16.98;8.68;;;11.30;97.00;;;;;;5127606;28;20028;-58
2022/11/30 03:21:47;;;;;;;19.23;8.93;;;11.30;97.00;;;;;;5091950;28;20031;-59
2022/11/30 03:24:12;;;;;;;20.25;8.55;;;11.20;97.00;;;;;;5092093;28;20023;-58
2022/11/30 03:26:38;;;;;;;21.02;8.52;;;11.20;97.10;;;;;;5109236;28;20083;-58
2022/11/30 03:29:04;;;;;;;26.88;9.43;;;11.30;97.10;;;;;;5108967;28;20023;-58
2022/11/30 03:31:29;;;;;;;21.75;9.10;;;11.20;97.20;;;;;;5108490;28;20485;-58
2022/11/30 03:33:55;;;;;;;24.10;8.98;;;11.20;97.10;;;;;;5108279;28;20020;-58
2022/11/30 03:36:20;;;;;;;21.38;9.27;;;11.20;97.10;;;;;;5108185;28;20397;-58
2022/11/30 03:38:46;;;;;;;16.33;8.45;;;11.20;97.10;;;;;;5091040;28;20082;-58
2022/11/30 03:41:15;;;;;;;19.40;8.38;;;11.20;97.10;;;;;;5107955;28;20567;-58
2022/11/30 03:43:41;;;;;;;18.05;9.07;;;11.20;97.10;;;;;;5108338;28;20036;-58
2022/11/30 03:46:07;;;;;;;19.55;8.30;;;11.20;97.10;;;;;;5107969;28;20079;-58
2022/11/30 03:48:34;;;;;;;16.40;8.85;;;11.20;97.10;;;;;;5126170;28;20027;-58
2022/11/30 03:51:00;;;;;;;22.02;8.20;;;11.20;97.10;;;;;;5126432;28;20039;-58
2022/11/30 03:53:26;;;;;;;17.48;7.80;;;11.20;97.40;;;;;;5107795;28;20028;-58
2022/11/30 03:55:53;;;;;;;21.23;9.18;;;11.20;97.10;;;;;;5107934;28;20028;-58
2022/11/30 03:58:19;;;;;;;14.25;7.30;;;11.20;97.20;;;;;;5107855;28;20051;-58
2022/11/30 04:00:44;;;;;;;17.50;7.72;;;11.20;97.10;;;;;;5126285;28;20039;-58
2022/11/30 04:03:10;;;;;;;18.15;7.82;;;11.20;97.00;;;;;;5107725;28;20034;-58
2022/11/30 04:05:35;;;;;;;17.15;7.55;;;11.20;96.90;;;;;;5126018;28;20043;-58
2022/11/30 04:08:01;;;;;;;18.25;7.22;;;11.20;97.00;;;;;;5107903;28;20023;-58
2022/11/30 04:10:27;;;;;;;16.15;7.45;;;11.20;97.10;;;;;;5126078;28;20031;-59
2022/11/30 04:12:52;;;;;;;18.63;7.63;;;11.20;97.20;;;;;;5107445;28;20038;-58
2022/11/30 04:15:18;;;;;;;21.80;7.22;;;11.20;97.20;;;;;;5107291;28;20338;-59
2022/11/30 04:17:43;;;;;;;23.20;6.90;;;11.20;97.20;;;;;;5090406;28;20365;-59
2022/11/30 04:20:10;;;;;;;19.88;7.88;;;11.20;97.20;;;;;;5107672;28;20095;-58
2022/11/30 04:22:35;;;;;;;13.77;6.65;;;11.20;97.20;;;;;;5125899;28;20028;-59
2022/11/30 04:25:01;;;;;;;14.60;7.68;;;11.10;97.10;;;;;;5125605;28;20043;-58
2022/11/30 04:27:27;;;;;;;18.58;7.20;;;11.20;97.20;;;;;;5125182;28;20106;-58
2022/11/30 04:29:53;;;;;;;14.50;6.85;;;11.20;97.20;;;;;;5107458;28;20039;-58
2022/11/30 04:32:18;;;;;;;19.83;7.35;;;11.10;97.10;;;;;;5125767;28;20024;-59
2022/11/30 04:34:44;;;;;;;16.75;7.60;;;11.10;97.10;;;;;;5090224;28;20028;-58
2022/11/30 04:37:09;;;;;;;16.23;7.95;;;11.20;97.10;;;;;;5106868;28;20036;-59
2022/11/30 04:39:35;;;;;;;15.85;7.38;;;11.10;97.10;;;;;;5107193;28;20032;-59
2022/11/30 04:42:00;;;;;;;21.55;8.10;;;11.10;97.00;;;;;;5106850;28;20039;-59
2022/11/30 04:44:26;;;;;;;16.38;7.13;;;11.10;97.10;;;;;;5107118;28;20498;-59
2022/11/30 04:46:51;;;;;;;17.77;7.28;;;11.10;97.00;;;;;;5107327;28;20032;-58
2022/11/30 04:49:17;;;;;;;15.82;8.20;;;11.10;97.00;;;;;;5125380;28;20020;-59
2022/11/30 04:51:43;;;;;;;12.32;7.80;;;11.10;97.10;;;;;;5107155;28;20031;-58
2022/11/30 04:54:08;;;;;;;16.05;7.95;;;11.10;97.10;;;;;;5090529;28;20524;-58
2022/11/30 04:56:34;;;;;;;17.88;8.15;;;11.10;97.10;;;;;;5090163;28;20032;-58
2022/11/30 04:59:02;;;;;;;14.43;7.88;;;11.10;97.10;;;;;;5125283;28;20065;-59
2022/11/30 05:01:28;;;;;;;15.32;7.40;;;11.10;97.10;;;;;;5106996;28;20057;-59
2022/11/30 05:03:53;;;;;;;16.08;7.85;;;11.10;97.10;;;;;;5106870;28;20079;-58
2022/11/30 05:06:19;;;;;;;14.02;8.00;;;11.10;97.10;;;;;;5125264;28;20083;-58
2022/11/30 05:08:44;;;;;;;18.40;8.52;;;11.10;97.10;;;;;;5107016;28;20028;-58
2022/11/30 05:11:10;;;;;;;15.25;8.13;;;11.10;97.10;;;;;;5125336;28;20103;-58
2022/11/30 05:13:36;;;;;;;22.38;7.85;;;11.10;97.20;;;;;;5125180;28;20160;-58
2022/11/30 05:16:01;;;;;;;25.75;8.00;;;11.10;97.30;;;;;;5090141;28;20032;-58
2022/11/30 05:18:28;;;;;;;24.45;7.80;;;11.10;97.40;;;;;;5106861;28;20353;-58
2022/11/30 05:20:53;;;;;;;13.43;7.70;;;11.00;97.40;;;;;;5090249;28;20050;-59
2022/11/30 05:23:19;;;;;;;26.73;7.85;;;11.10;97.40;;;;;;5089853;28;20032;-58
2022/11/30 05:25:45;;;;;;;18.85;7.15;;;11.00;97.40;;;;;;5106569;28;20027;-58
2022/11/30 05:28:10;;;;;;;21.10;8.15;;;11.10;97.40;;;;;;5106596;28;20038;-58
2022/11/30 05:30:38;;;;;;;20.33;7.03;;;11.10;97.40;;;;;;5106690;28;20032;-58
2022/11/30 05:33:04;;;;;;;25.10;7.88;;;11.10;97.30;;;;;;5089813;28;20032;-58
2022/11/30 05:35:29;;;;;;;24.48;8.38;;;11.10;97.30;;;;;;5106781;28;20020;-59
2022/11/30 05:37:55;;;;;;;22.42;8.25;;;11.10;97.20;;;;;;5126067;28;20023;-58
2022/11/30 05:40:20;;;;;;;16.95;7.43;;;11.10;97.20;;;;;;5128903;28;20098;-58
2022/11/30 05:42:46;;;;;;;13.95;7.22;;;11.10;97.30;;;;;;5128706;28;20072;-58
2022/11/30 05:45:11;;;;;;;19.10;7.70;;;11.10;97.20;;;;;;5128896;28;20520;-59
2022/11/30 05:47:37;;;;;;;18.40;6.95;;;11.00;97.10;;;;;;5128861;28;20498;-58
2022/11/30 05:50:03;;;;;;;16.77;7.25;;;11.00;97.10;;;;;;5110515;28;20056;-58
2022/11/30 05:52:29;;;;;;;18.73;6.53;;;11.00;97.10;;;;;;5110133;28;20042;-58
2022/11/30 05:54:55;;;;;;;18.80;6.80;;;11.00;97.20;;;;;;5093367;28;20103;-58
2022/11/30 05:57:20;;;;;;;12.00;7.18;;;11.00;97.20;;;;;;5128650;28;20042;-58
2022/11/30 05:59:46;;;;;;;16.92;6.65;;;11.00;97.20;;;;;;5110017;28;20058;-58
2022/11/30 06:02:11;;;;;;;19.55;6.65;;;11.00;97.20;;;;;;5110452;28;20027;-58
2022/11/30 06:04:37;;;;;;;17.27;6.85;;;11.00;97.20;;;;;;5128428;28;20030;-58
2022/11/30 06:07:03;;;;;;;15.90;6.90;;;11.00;97.20;;;;;;5109900;28;20032;-58
2022/11/30 06:09:28;;;;;;;14.43;7.03;;;11.00;97.30;;;;;;5110122;28;20027;-58
2022/11/30 06:11:54;;;;;;;16.15;7.28;;;11.00;97.40;;;;;;5109994;28;20038;-58
2022/11/30 06:14:19;;;;;;;13.85;6.28;;;10.90;97.40;;;;;;5092988;28;20106;-58
2022/11/30 06:16:45;;;;;;;12.38;5.65;;;11.00;97.40;;;;;;5109849;28;20039;-58
2022/11/30 06:19:10;;;;;;;15.68;6.57;;;10.90;97.50;;;;;;5128283;28;20023;-58
2022/11/30 06:21:36;;;;;;;18.30;7.00;;;10.90;97.50;;;;;;5128250;28;20024;-58
2022/11/30 06:24:02;;;;;;;12.77;6.15;;;10.90;97.50;;;;;;5092872;28;20049;-58
2022/11/30 06:26:27;;;;;;;13.15;6.15;;;10.90;97.50;;;;;;5128115;28;20035;-58
2022/11/30 06:28:53;;;;;;;12.02;6.05;;;10.90;97.50;;;;;;5128051;28;20043;-58
2022/11/30 06:31:18;;;;;;;11.98;5.43;;;10.90;97.50;;;;;;5127964;28;20057;-58
2022/11/30 06:33:44;;;;;;;17.20;6.40;;;10.90;97.50;;;;;;5127832;28;20373;-58
2022/11/30 06:36:09;;;;;;;8.82;5.80;;;10.90;97.60;;;;;;5127828;28;20028;-58
2022/11/30 06:38:35;;;;;;;14.63;6.32;;;10.90;97.60;;;;;;5092488;28;20028;-58
2022/11/30 06:41:04;;;;;;;13.70;6.18;;;10.90;97.60;;;;;;5109176;28;20031;-58
2022/11/30 06:43:34;;;;;;;12.20;6.13;;;10.90;97.60;;;;;;5109412;28;20038;-58
2022/11/30 06:46:00;;;;;;;12.43;6.07;;;10.90;97.60;;;;;;5109159;28;20030;-59
2022/11/30 06:48:26;;;;;;;17.05;6.30;;;10.90;97.60;;;;;;5127708;28;20055;-58
2022/11/30 06:50:51;;;;;;;14.23;6.22;;;10.90;97.60;;;;;;5091452;28;20051;-58
2022/11/30 06:53:17;;;;;;;8.57;5.65;;;10.90;97.40;;;;;;5127474;28;20031;-58
2022/11/30 06:55:42;;;;;;;11.02;5.88;;;10.90;97.40;;;;;;5127487;28;20052;-58
2022/11/30 06:58:08;;;;;;;8.98;5.65;;;10.90;97.30;;;;;;5127276;28;20030;-59
2022/11/30 07:00:34;;;;;;;16.23;6.18;;;10.90;97.30;;;;;;5091951;28;20031;-58
2022/11/30 07:02:59;;;;;;;10.15;5.57;;;10.90;97.20;;;;;;5127025;28;20023;-58
2022/11/30 07:05:25;;;;;;;9.85;5.40;;;10.90;97.20;;;;;;5109069;28;20027;-58
2022/11/30 07:07:51;;;;;;;11.70;6.35;;;10.90;97.20;;;;;;5092211;28;20038;-58
2022/11/30 07:10:16;;;;;;;11.00;5.97;;;10.90;97.20;;;;;;5109157;28;20391;-58
2022/11/30 07:12:44;;;;;;;12.65;6.13;;;10.80;97.10;;;;;;5108840;28;20385;-58
2022/11/30 07:15:10;;;;;;;14.75;5.80;;;10.80;97.20;;;;;;5123025;28;20055;-58
2022/11/30 07:17:35;;;;;;;14.43;6.18;;;10.80;97.20;;;;;;5091002;28;20042;-58
2022/11/30 07:20:01;;;;;;;9.57;5.82;;;10.80;97.20;;;;;;5107174;28;20024;-58
2022/11/30 07:22:26;;;;;;;9.63;5.68;;;10.80;97.20;;;;;;5107922;28;20028;-58
2022/11/30 07:27:36;;;;;;;9.73;5.93;;;10.80;97.20;;;;;;5105885;28;20437;-58
2022/11/30 07:30:02;;;;;;;13.50;6.85;;;10.80;97.10;;;;;;5106300;28;20024;-56
2022/11/30 07:32:27;;;;;;;15.77;6.90;;;10.80;97.10;;;;;;5104914;28;20040;-58
2022/11/30 07:34:53;;;;;;;12.18;6.63;;;10.80;97.10;;;;;;5106327;28;20028;-58
2022/11/30 07:37:18;;;;;;;12.63;6.60;;;10.80;97.00;;;;;;5087372;28;20036;-58
2022/11/30 07:39:44;;;;;;;9.25;6.70;;;10.80;97.00;;;;;;5087824;28;20024;-58
2022/11/30 07:42:09;;;;;;;10.45;6.68;;;10.80;97.00;;;;;;5105995;28;20062;-58
2022/11/30 07:44:35;;;;;;;13.10;6.57;;;10.80;96.90;;;;;;5106150;28;20123;-58
2022/11/30 07:47:00;;;;;;;10.68;6.53;;;10.80;97.00;;;;;;5087734;28;20032;-58
2022/11/30 07:49:26;;;;;;;8.65;6.40;;;10.80;96.90;;;;;;5087570;28;20042;-58
2022/11/30 07:51:51;;;;;;;10.35;6.57;;;10.70;96.90;;;;;;5104583;28;20038;-58
2022/11/30 07:54:17;;;;;;;11.98;6.80;;;10.80;96.90;;;;;;5104441;28;20536;-58
2022/11/30 07:56:43;;;;;;;11.07;6.90;;;10.80;96.80;;;;;;5105717;28;20061;-58
2022/11/30 07:59:08;;;;;;;14.73;6.60;;;10.80;96.80;;;;;;5104505;28;20083;-58
2022/11/30 08:01:34;;;;;;;9.30;6.75;;;10.80;96.70;;;;;;5103331;28;20042;-57
2022/11/30 08:04:00;;;;;;;10.55;7.60;;;10.80;96.70;;;;;;5105549;28;20054;-59
2022/11/30 08:06:27;;;;;;;10.45;7.57;;;10.80;96.60;;;;;;5104226;28;20389;-58
2022/11/30 08:08:53;;;;;;;8.55;6.80;;;10.80;96.60;;;;;;5104110;28;20089;-58
2022/11/30 08:11:21;;;;;;;11.98;6.93;;;10.80;96.60;;;;;;5104093;28;20039;-58
2022/11/30 08:13:46;;;;;;;10.25;7.18;;;10.70;96.50;;;;;;5105840;28;20044;-58
2022/11/30 08:16:14;;;;;;;15.80;8.43;;;10.70;96.60;;;;;;5104274;28;20036;-58
2022/11/30 08:18:39;;;;;;;14.35;7.43;;;10.70;96.60;;;;;;5104075;28;20049;-58
2022/11/30 08:21:06;;;;;;;17.83;8.18;;;10.80;96.50;;;;;;5087196;28;20028;-58
2022/11/30 08:23:34;;;;;;;15.85;8.32;;;10.80;96.50;;;;;;5103886;28;20175;-57
2022/11/30 08:26:05;;;;;;;21.35;8.35;;;10.80;96.50;;;;;;5105222;28;20024;-58
2022/11/30 08:28:31;;;;;;;17.00;8.43;;;10.80;96.60;;;;;;5103724;28;20556;-58
2022/11/30 08:31:00;;;;;;;29.27;9.25;;;10.80;96.60;;;;;;5104905;28;20040;-58
2022/11/30 08:33:26;;;;;;;23.42;8.85;;;10.80;96.60;;;;;;5103478;28;20048;-58
2022/11/30 08:35:51;;;;;;;30.02;9.10;;;10.70;96.50;;;;;;5103579;28;20096;-58
2022/11/30 08:38:17;;;;;;;30.23;9.27;;;10.80;96.60;;;;;;5105106;28;20039;-58
2022/11/30 08:40:42;;;;;;;34.60;10.07;;;10.80;96.60;;;;;;5103531;28;20044;-58
2022/11/30 08:43:08;;;;;;;55.75;12.20;;;10.80;96.50;;;;;;5104085;28;20028;-58
2022/11/30 08:45:34;;;;;;;128.25;19.40;;;10.80;96.60;;;;;;5105538;28;20028;-58
2022/11/30 08:47:59;;;;;;;67.00;12.43;;;10.80;96.60;;;;;;5101209;28;20026;-58
2022/11/30 08:50:25;;;;;;;74.63;13.32;;;10.80;96.60;;;;;;5109198;28;20028;-58
2022/11/30 08:52:53;;;;;;;82.75;14.73;;;10.80;96.60;;;;;;5105000;28;20028;-58
2022/11/30 08:55:18;;;;;;;121.78;17.52;;;10.80;96.70;;;;;;5087216;28;20020;-58
2022/11/30 08:57:44;;;;;;;147.95;22.88;;;10.80;96.80;;;;;;5086573;28;20024;-58
2022/11/30 09:00:10;;;;;;;104.70;19.02;;;10.80;96.70;;;;;;5086408;28;20032;-58
2022/11/30 09:02:36;;;;;;;91.07;17.77;;;10.80;96.70;;;;;;5119797;28;20032;-58
2022/11/30 09:05:01;;;;;;;75.35;16.23;;;10.80;96.70;;;;;;5104375;28;20024;-58
2022/11/30 09:07:27;;;;;;;109.47;17.65;;;10.80;96.60;;;;;;5093166;28;20393;-58
2022/11/30 09:09:52;;;;;;;139.50;20.63;;;10.80;96.60;;;;;;5107127;28;20089;-58
2022/11/30 09:12:18;;;;;;;132.05;20.27;;;10.80;96.50;;;;;;5125492;28;20032;-58
2022/11/30 09:14:44;;;;;;;118.13;18.33;;;10.80;96.50;;;;;;5129446;28;20027;-58
2022/11/30 09:17:09;;;;;;;108.35;19.52;;;10.80;96.40;;;;;;5110875;28;20031;-58
2022/11/30 09:19:35;;;;;;;106.55;18.02;;;10.80;96.30;;;;;;5099712;28;20035;-58
2022/11/30 09:22:01;;;;;;;103.95;19.08;;;10.80;96.20;;;;;;5115443;28;20032;-58
2022/11/30 09:24:26;;;;;;;106.18;17.30;;;10.80;96.10;;;;;;5104674;28;20048;-59
2022/11/30 09:26:54;;;;;;;75.00;17.08;;;10.90;96.00;;;;;;5122719;28;20047;-58
2022/11/30 09:29:20;;;;;;;83.90;17.83;;;10.90;95.90;;;;;;5097968;28;20035;-58
2022/11/30 09:31:46;;;;;;;95.03;20.27;;;10.90;95.90;;;;;;5102380;28;20091;-58
2022/11/30 09:34:11;;;;;;;113.15;19.42;;;10.90;95.90;;;;;;5106285;28;20024;-58
2022/11/30 09:36:37;;;;;;;148.45;24.90;;;10.90;95.90;;;;;;5106999;28;20427;-58
2022/11/30 09:39:02;;;;;;;106.15;20.77;;;10.90;95.90;;;;;;5107704;28;20376;-58
2022/11/30 09:41:43;;;;;;;115.53;21.60;;;10.90;95.90;;;;;;5128308;28;20115;-58
2022/11/30 09:44:21;;;;;;;124.45;21.92;;;10.90;96.00;;;;;;5128270;28;20026;-58
2022/11/30 09:46:53;;;;;;;161.27;24.33;;;10.80;96.00;;;;;;5093221;28;20441;-58
2022/11/30 09:49:22;;;;;;;176.02;27.25;;;10.90;96.00;;;;;;5110242;28;20027;-58
2022/11/30 09:51:48;;;;;;;142.15;22.95;;;10.90;96.30;;;;;;5110466;28;20097;-58
2022/11/30 09:54:34;;;;;;;122.47;23.60;;;10.90;96.00;;;;;;5111111;28;20028;-58
2022/11/30 09:57:19;;;;;;;124.68;23.20;;;10.90;95.90;;;;;;5110923;28;20032;-58
2022/11/30 09:59:52;;;;;;;168.93;28.30;;;10.90;96.00;;;;;;5113130;28;20028;-58
2022/11/30 10:02:17;;;;;;;182.30;29.10;;;10.90;95.90;;;;;;5110234;28;20039;-58
2022/11/30 10:04:43;;;;;;;187.30;27.10;;;10.90;95.80;;;;;;5128616;28;20012;-58
2022/11/30 10:07:28;;;;;;;137.60;24.83;;;10.90;95.90;;;;;;5109908;28;20030;-58
2022/11/30 10:10:00;;;;;;;155.65;25.83;;;10.90;95.80;;;;;;5109379;28;20047;-58
2022/11/30 10:13:07;;;;;;;145.68;25.63;;;10.90;95.70;;;;;;5109717;28;20034;-57
2022/11/30 10:15:54;;;;;;;136.07;24.35;;;10.90;95.70;;;;;;5092986;28;20043;-58
2022/11/30 10:18:38;;;;;;;138.45;22.15;;;10.90;95.60;;;;;;5127961;28;20031;-58
2022/11/30 10:21:13;;;;;;;124.35;23.25;;;10.90;95.60;;;;;;5128061;28;20036;-58
2022/11/30 10:24:10;;;;;;;138.05;22.58;;;10.90;95.50;;;;;;5109860;28;20032;-57
2022/11/30 10:26:37;;;;;;;142.07;24.73;;;11.00;95.50;;;;;;5128122;28;20028;-59
2022/11/30 10:29:34;;;;;;;137.57;23.75;;;11.00;95.30;;;;;;5093383;28;20032;-58
2022/11/30 10:32:00;;;;;;;166.38;25.33;;;11.00;95.30;;;;;;5097388;28;20074;-57
2022/11/30 10:34:34;;;;;;;173.48;25.23;;;11.00;95.20;;;;;;5109486;28;20111;-58
2022/11/30 10:37:17;;;;;;;152.65;25.15;;;11.00;95.20;;;;;;5109737;28;20107;-58
2022/11/30 10:40:03;;;;;;;159.07;25.08;;;11.00;95.20;;;;;;5128025;28;20083;-58
2022/11/30 10:42:41;;;;;;;185.85;27.10;;;11.00;95.30;;;;;;5109233;28;20055;-58
2022/11/30 10:45:18;;;;;;;140.75;25.67;;;11.00;95.40;;;;;;5109006;28;20020;-58
2022/11/30 10:48:31;;;;;;;147.30;24.90;;;11.00;95.40;;;;;;5109582;28;20180;-58
2022/11/30 10:50:57;;;;;;;144.35;22.58;;;11.00;95.40;;;;;;5121961;28;20377;-58
2022/11/30 10:53:23;;;;;;;111.45;20.95;;;11.00;95.40;;;;;;5108934;28;20038;-58
2022/11/30 10:56:04;;;;;;;110.10;20.73;;;11.00;95.40;;;;;;5108568;28;20118;-58
2022/11/30 10:58:44;;;;;;;121.50;24.45;;;11.00;95.30;;;;;;5110404;28;20028;-58
2022/11/30 11:01:27;;;;;;;118.00;20.70;;;11.00;95.30;;;;;;5108902;28;20546;-58
2022/11/30 11:04:11;;;;;;;119.03;21.35;;;11.00;95.20;;;;;;5094384;28;20118;-58
2022/11/30 11:06:54;;;;;;;134.02;23.75;;;11.00;95.20;;;;;;5109942;28;20425;-58
2022/11/30 11:09:28;;;;;;;96.47;20.08;;;11.00;95.20;;;;;;5093395;28;20157;-58
2022/11/30 11:11:54;;;;;;;117.57;19.73;;;11.00;95.20;;;;;;5127720;28;20036;-58
2022/11/30 11:14:22;;;;;;;143.70;22.25;;;11.00;95.10;;;;;;5108618;28;20087;-58
2022/11/30 11:16:55;;;;;;;115.15;21.02;;;11.00;95.10;;;;;;5108461;28;20027;-58
2022/11/30 11:19:33;;;;;;;91.75;19.08;;;11.00;95.00;;;;;;5108443;28;20019;-58
2022/11/30 11:22:00;;;;;;;113.07;19.75;;;11.00;95.00;;;;;;5126533;28;20031;-58
2022/11/30 11:24:26;;;;;;;117.10;21.35;;;11.00;95.00;;;;;;5107772;28;20091;-58
2022/11/30 11:26:52;;;;;;;118.13;21.48;;;11.00;95.00;;;;;;5107178;28;20047;-58
2022/11/30 11:29:43;;;;;;;107.10;19.95;;;11.00;95.20;;;;;;5107768;28;20016;-58
2022/11/30 11:32:19;;;;;;;121.03;19.38;;;11.00;95.00;;;;;;5105707;27;20050;-58
2022/11/30 11:34:44;;;;;;;100.60;19.10;;;11.00;95.00;;;;;;5089733;28;20135;-58
2022/11/30 11:37:20;;;;;;;103.68;20.20;;;11.00;94.90;;;;;;5107148;28;20536;-58
2022/11/30 11:39:58;;;;;;;96.05;17.63;;;11.00;94.90;;;;;;5108544;28;20011;-58
2022/11/30 11:42:24;;;;;;;94.50;17.55;;;11.10;95.20;;;;;;5125972;28;20091;-58
2022/11/30 11:44:51;;;;;;;89.32;17.80;;;11.00;94.80;;;;;;5106735;28;20142;-58
2022/11/30 11:47:40;;;;;;;89.55;16.85;;;11.10;94.90;;;;;;5107229;28;20031;-58
2022/11/30 11:50:20;;;;;;;87.70;16.60;;;11.10;94.90;;;;;;5099341;28;20039;-58
2022/11/30 11:52:47;;;;;;;80.35;16.27;;;11.10;94.90;;;;;;5107816;28;20059;-55
2022/11/30 11:55:17;;;;;;;81.13;16.10;;;11.10;94.80;;;;;;5106941;28;20027;-55
2022/11/30 11:57:56;;;;;;;79.38;15.70;;;11.10;94.70;;;;;;5107267;28;20035;-55
2022/11/30 12:00:24;;;;;;;93.00;16.70;;;11.10;94.70;;;;;;5105763;28;20062;-55
2022/11/30 12:03:02;;;;;;;77.28;14.52;;;11.10;94.70;;;;;;5108116;28;20031;-55
2022/11/30 12:06:02;;;;;;;62.40;12.88;;;11.10;94.50;;;;;;5091566;28;20015;-55
2022/11/30 12:08:34;;;;;;;75.30;13.75;;;11.10;94.30;;;;;;5093471;28;20046;-55
2022/11/30 12:11:16;;;;;;;80.68;13.68;;;11.00;94.20;;;;;;5124483;28;20376;-55
2022/11/30 12:13:43;;;;;;;80.78;14.50;;;11.10;94.20;;;;;;5103237;28;20047;-55
2022/11/30 12:16:36;;;;;;;87.13;14.15;;;11.10;94.10;;;;;;5106806;28;20058;-55
2022/11/30 12:19:13;;;;;;;64.18;13.15;;;11.00;94.00;;;;;;5106590;28;20039;-55
2022/11/30 12:21:51;;;;;;;69.10;12.60;;;11.00;94.00;;;;;;5125308;28;20038;-55
2022/11/30 12:24:30;;;;;;;99.60;15.27;;;11.10;94.00;;;;;;5107495;28;20073;-55
2022/11/30 12:27:06;;;;;;;71.43;14.20;;;11.00;94.00;;;;;;5107422;28;20035;-55
2022/11/30 12:30:01;;;;;;;73.53;13.30;;;11.00;94.00;;;;;;5107041;28;20161;-55
2022/11/30 12:32:37;;;;;;;82.00;13.77;;;11.00;93.90;;;;;;5090920;28;20311;-55
2022/11/30 12:35:19;;;;;;;70.90;13.20;;;11.00;93.90;;;;;;5105864;28;20042;-55
2022/11/30 12:37:56;;;;;;;73.20;13.32;;;11.00;93.90;;;;;;5102250;28;20114;-55
2022/11/30 12:40:32;;;;;;;78.32;14.38;;;11.00;93.80;;;;;;5106527;28;20023;-55
2022/11/30 12:43:19;;;;;;;76.88;11.77;;;11.00;93.80;;;;;;5088698;28;20042;-55